sensor_id;sensor_type;location;lat;lon;timestamp;P1;durP1;ratioP1;P2;durP2;ratioP2
29214;SDS011;16252;49.816;7.964;2022-08-18T00:01:20;6.82;;;6.13;;
29214;SDS011;16252;49.816;7.964;2022-08-18T00:03:48;6.93;;;5.75;;
29214;SDS011;16252;49.816;7.964;2022-08-18T00:06:14;6.95;;;6.25;;
29214;SDS011;16252;49.816;7.964;2022-08-18T00:08:40;8.00;;;6.85;;
29214;SDS011;16252;49.816;7.964;2022-08-18T00:11:06;7.03;;;6.20;;
29214;SDS011;16252;49.816;7.964;2022-08-18T00:13:31;7.75;;;6.60;;
29214;SDS011;16252;49.816;7.964;2022-08-18T00:15:56;8.02;;;6.97;;
29214;SDS011;16252;49.816;7.964;2022-08-18T00:18:22;7.68;;;6.97;;
29214;SDS011;16252;49.816;7.964;2022-08-18T00:20:47;7.95;;;6.60;;
29214;SDS011;16252;49.816;7.964;2022-08-18T00:23:13;7.47;;;6.68;;
29214;SDS011;16252;49.816;7.964;2022-08-18T00:25:38;6.75;;;6.05;;
29214;SDS011;16252;49.816;7.964;2022-08-18T00:28:04;6.80;;;6.10;;
29214;SDS011;16252;49.816;7.964;2022-08-18T00:30:29;7.22;;;6.15;;
29214;SDS011;16252;49.816;7.964;2022-08-18T00:32:56;8.95;;;6.30;;
29214;SDS011;16252;49.816;7.964;2022-08-18T00:35:27;7.53;;;6.82;;
29214;SDS011;16252;49.816;7.964;2022-08-18T00:37:59;7.15;;;6.45;;
29214;SDS011;16252;49.816;7.964;2022-08-18T00:40:35;6.60;;;5.90;;
29214;SDS011;16252;49.816;7.964;2022-08-18T00:43:13;7.45;;;6.50;;
29214;SDS011;16252;49.816;7.964;2022-08-18T00:45:45;7.25;;;6.55;;
29214;SDS011;16252;49.816;7.964;2022-08-18T00:48:11;7.57;;;6.78;;
29214;SDS011;16252;49.816;7.964;2022-08-18T00:50:39;8.10;;;6.75;;
29214;SDS011;16252;49.816;7.964;2022-08-18T00:53:14;9.48;;;7.10;;
29214;SDS011;16252;49.816;7.964;2022-08-18T00:55:45;6.60;;;6.00;;
29214;SDS011;16252;49.816;7.964;2022-08-18T00:58:15;9.57;;;6.72;;
29214;SDS011;16252;49.816;7.964;2022-08-18T01:00:56;8.02;;;7.10;;
29214;SDS011;16252;49.816;7.964;2022-08-18T01:03:24;7.18;;;6.47;;
29214;SDS011;16252;49.816;7.964;2022-08-18T01:05:51;7.60;;;6.50;;
29214;SDS011;16252;49.816;7.964;2022-08-18T01:08:23;7.50;;;6.70;;
29214;SDS011;16252;49.816;7.964;2022-08-18T01:10:50;7.63;;;6.20;;
29214;SDS011;16252;49.816;7.964;2022-08-18T01:13:15;6.90;;;6.20;;
29214;SDS011;16252;49.816;7.964;2022-08-18T01:15:41;8.27;;;6.07;;
29214;SDS011;16252;49.816;7.964;2022-08-18T01:18:09;9.65;;;6.50;;
29214;SDS011;16252;49.816;7.964;2022-08-18T01:21:07;7.60;;;6.70;;
29214;SDS011;16252;49.816;7.964;2022-08-18T01:24:07;6.68;;;6.05;;
29214;SDS011;16252;49.816;7.964;2022-08-18T01:26:37;7.47;;;6.78;;
29214;SDS011;16252;49.816;7.964;2022-08-18T01:29:05;7.40;;;6.15;;
29214;SDS011;16252;49.816;7.964;2022-08-18T01:31:37;6.85;;;6.15;;
29214;SDS011;16252;49.816;7.964;2022-08-18T01:34:06;6.68;;;6.00;;
29214;SDS011;16252;49.816;7.964;2022-08-18T01:36:34;9.02;;;5.95;;
29214;SDS011;16252;49.816;7.964;2022-08-18T01:39:03;7.90;;;6.05;;
29214;SDS011;16252;49.816;7.964;2022-08-18T01:41:29;7.15;;;6.43;;
29214;SDS011;16252;49.816;7.964;2022-08-18T01:43:55;6.80;;;6.10;;
29214;SDS011;16252;49.816;7.964;2022-08-18T01:46:22;6.85;;;6.25;;
29214;SDS011;16252;49.816;7.964;2022-08-18T01:48:49;6.53;;;5.93;;
29214;SDS011;16252;49.816;7.964;2022-08-18T01:51:16;6.57;;;5.97;;
29214;SDS011;16252;49.816;7.964;2022-08-18T01:53:43;7.97;;;7.18;;
29214;SDS011;16252;49.816;7.964;2022-08-18T01:56:09;7.50;;;6.80;;
29214;SDS011;16252;49.816;7.964;2022-08-18T01:58:35;7.57;;;6.78;;
29214;SDS011;16252;49.816;7.964;2022-08-18T02:01:01;7.97;;;6.63;;
29214;SDS011;16252;49.816;7.964;2022-08-18T02:03:29;6.88;;;6.13;;
29214;SDS011;16252;49.816;7.964;2022-08-18T02:06:00;7.85;;;6.47;;
29214;SDS011;16252;49.816;7.964;2022-08-18T02:08:28;8.70;;;6.88;;
29214;SDS011;16252;49.816;7.964;2022-08-18T02:10:53;7.68;;;6.63;;
29214;SDS011;16252;49.816;7.964;2022-08-18T02:13:21;7.18;;;6.47;;
29214;SDS011;16252;49.816;7.964;2022-08-18T02:15:46;8.48;;;5.80;;
29214;SDS011;16252;49.816;7.964;2022-08-18T02:18:12;7.20;;;5.88;;
29214;SDS011;16252;49.816;7.964;2022-08-18T02:20:41;7.43;;;6.28;;
29214;SDS011;16252;49.816;7.964;2022-08-18T02:23:07;6.95;;;6.25;;
29214;SDS011;16252;49.816;7.964;2022-08-18T02:25:33;7.50;;;6.65;;
29214;SDS011;16252;49.816;7.964;2022-08-18T02:27:58;7.13;;;6.43;;
29214;SDS011;16252;49.816;7.964;2022-08-18T02:30:24;7.03;;;6.32;;
29214;SDS011;16252;49.816;7.964;2022-08-18T02:32:49;7.25;;;6.47;;
29214;SDS011;16252;49.816;7.964;2022-08-18T02:35:14;6.35;;;5.75;;
29214;SDS011;16252;49.816;7.964;2022-08-18T02:37:40;8.43;;;6.43;;
29214;SDS011;16252;49.816;7.964;2022-08-18T02:40:06;7.57;;;6.53;;
29214;SDS011;16252;49.816;7.964;2022-08-18T02:42:32;7.00;;;6.20;;
29214;SDS011;16252;49.816;7.964;2022-08-18T02:44:58;7.00;;;6.38;;
29214;SDS011;16252;49.816;7.964;2022-08-18T02:47:23;7.55;;;6.32;;
29214;SDS011;16252;49.816;7.964;2022-08-18T02:49:49;6.88;;;6.22;;
29214;SDS011;16252;49.816;7.964;2022-08-18T02:52:14;8.38;;;6.53;;
29214;SDS011;16252;49.816;7.964;2022-08-18T02:54:39;6.97;;;6.22;;
29214;SDS011;16252;49.816;7.964;2022-08-18T02:57:06;7.43;;;6.63;;
29214;SDS011;16252;49.816;7.964;2022-08-18T02:59:32;8.40;;;7.50;;
29214;SDS011;16252;49.816;7.964;2022-08-18T03:01:57;7.95;;;7.15;;
29214;SDS011;16252;49.816;7.964;2022-08-18T03:04:24;7.90;;;7.10;;
29214;SDS011;16252;49.816;7.964;2022-08-18T03:06:51;7.65;;;6.90;;
29214;SDS011;16252;49.816;7.964;2022-08-18T03:09:20;7.18;;;6.47;;
29214;SDS011;16252;49.816;7.964;2022-08-18T03:11:46;7.50;;;6.80;;
29214;SDS011;16252;49.816;7.964;2022-08-18T03:14:12;8.15;;;7.07;;
29214;SDS011;16252;49.816;7.964;2022-08-18T03:16:39;8.52;;;6.95;;
29214;SDS011;16252;49.816;7.964;2022-08-18T03:19:06;8.63;;;7.22;;
29214;SDS011;16252;49.816;7.964;2022-08-18T03:21:31;7.65;;;6.85;;
29214;SDS011;16252;49.816;7.964;2022-08-18T03:24:02;7.88;;;7.03;;
29214;SDS011;16252;49.816;7.964;2022-08-18T03:26:28;7.43;;;6.63;;
29214;SDS011;16252;49.816;7.964;2022-08-18T03:28:55;8.40;;;7.13;;
29214;SDS011;16252;49.816;7.964;2022-08-18T03:31:22;6.90;;;6.20;;
29214;SDS011;16252;49.816;7.964;2022-08-18T03:33:49;7.47;;;6.78;;
29214;SDS011;16252;49.816;7.964;2022-08-18T03:36:20;7.50;;;6.70;;
29214;SDS011;16252;49.816;7.964;2022-08-18T03:38:48;7.90;;;7.10;;
29214;SDS011;16252;49.816;7.964;2022-08-18T03:41:15;9.13;;;7.75;;
29214;SDS011;16252;49.816;7.964;2022-08-18T03:43:43;8.32;;;7.47;;
29214;SDS011;16252;49.816;7.964;2022-08-18T03:46:10;10.48;;;7.65;;
29214;SDS011;16252;49.816;7.964;2022-08-18T03:48:37;8.88;;;7.30;;
29214;SDS011;16252;49.816;7.964;2022-08-18T03:51:06;8.32;;;7.53;;
29214;SDS011;16252;49.816;7.964;2022-08-18T03:53:37;8.23;;;7.47;;
29214;SDS011;16252;49.816;7.964;2022-08-18T03:56:07;10.27;;;7.68;;
29214;SDS011;16252;49.816;7.964;2022-08-18T03:59:03;8.02;;;7.10;;
29214;SDS011;16252;49.816;7.964;2022-08-18T04:01:30;7.90;;;7.20;;
29214;SDS011;16252;49.816;7.964;2022-08-18T04:03:58;9.02;;;7.57;;
29214;SDS011;16252;49.816;7.964;2022-08-18T04:06:27;8.15;;;7.18;;
29214;SDS011;16252;49.816;7.964;2022-08-18T04:09:03;8.55;;;7.05;;
29214;SDS011;16252;49.816;7.964;2022-08-18T04:11:31;8.52;;;7.32;;
29214;SDS011;16252;49.816;7.964;2022-08-18T04:13:58;9.35;;;8.30;;
29214;SDS011;16252;49.816;7.964;2022-08-18T04:16:24;8.20;;;7.28;;
29214;SDS011;16252;49.816;7.964;2022-08-18T04:18:50;10.23;;;7.40;;
29214;SDS011;16252;49.816;7.964;2022-08-18T04:21:16;8.13;;;7.22;;
29214;SDS011;16252;49.816;7.964;2022-08-18T04:23:41;11.23;;;7.85;;
29214;SDS011;16252;49.816;7.964;2022-08-18T04:26:07;11.40;;;7.72;;
29214;SDS011;16252;49.816;7.964;2022-08-18T04:28:34;9.35;;;8.35;;
29214;SDS011;16252;49.816;7.964;2022-08-18T04:31:04;8.48;;;7.68;;
29214;SDS011;16252;49.816;7.964;2022-08-18T04:33:31;9.82;;;8.75;;
29214;SDS011;16252;49.816;7.964;2022-08-18T04:35:56;9.80;;;8.80;;
29214;SDS011;16252;49.816;7.964;2022-08-18T04:38:22;9.07;;;8.20;;
29214;SDS011;16252;49.816;7.964;2022-08-18T04:40:48;10.55;;;8.70;;
29214;SDS011;16252;49.816;7.964;2022-08-18T04:43:13;9.93;;;8.48;;
29214;SDS011;16252;49.816;7.964;2022-08-18T04:45:44;10.93;;;9.05;;
29214;SDS011;16252;49.816;7.964;2022-08-18T04:48:10;8.30;;;7.47;;
29214;SDS011;16252;49.816;7.964;2022-08-18T04:50:36;10.48;;;8.85;;
29214;SDS011;16252;49.816;7.964;2022-08-18T04:53:02;8.93;;;8.02;;
29214;SDS011;16252;49.816;7.964;2022-08-18T04:55:51;11.27;;;8.82;;
29214;SDS011;16252;49.816;7.964;2022-08-18T04:58:19;10.68;;;9.13;;
29214;SDS011;16252;49.816;7.964;2022-08-18T05:00:45;11.00;;;9.80;;
29214;SDS011;16252;49.816;7.964;2022-08-18T05:03:11;10.82;;;9.73;;
29214;SDS011;16252;49.816;7.964;2022-08-18T05:05:37;10.90;;;9.32;;
29214;SDS011;16252;49.816;7.964;2022-08-18T05:08:02;10.32;;;9.23;;
29214;SDS011;16252;49.816;7.964;2022-08-18T05:10:28;11.50;;;9.20;;
29214;SDS011;16252;49.816;7.964;2022-08-18T05:12:53;9.70;;;8.48;;
29214;SDS011;16252;49.816;7.964;2022-08-18T05:15:19;9.40;;;8.50;;
29214;SDS011;16252;49.816;7.964;2022-08-18T05:17:44;9.50;;;8.55;;
29214;SDS011;16252;49.816;7.964;2022-08-18T05:20:10;9.98;;;9.00;;
29214;SDS011;16252;49.816;7.964;2022-08-18T05:22:36;9.45;;;8.45;;
29214;SDS011;16252;49.816;7.964;2022-08-18T05:25:09;9.88;;;8.82;;
29214;SDS011;16252;49.816;7.964;2022-08-18T05:27:39;10.13;;;9.05;;
29214;SDS011;16252;49.816;7.964;2022-08-18T05:30:07;10.57;;;8.85;;
29214;SDS011;16252;49.816;7.964;2022-08-18T05:32:34;9.20;;;8.30;;
29214;SDS011;16252;49.816;7.964;2022-08-18T05:35:05;10.10;;;8.63;;
29214;SDS011;16252;49.816;7.964;2022-08-18T05:40:44;9.82;;;8.82;;
29214;SDS011;16252;49.816;7.964;2022-08-18T05:43:10;10.18;;;9.07;;
29214;SDS011;16252;49.816;7.964;2022-08-18T05:45:39;9.63;;;8.37;;
29214;SDS011;16252;49.816;7.964;2022-08-18T05:48:05;9.00;;;8.15;;
29214;SDS011;16252;49.816;7.964;2022-08-18T05:50:31;9.07;;;8.18;;
29214;SDS011;16252;49.816;7.964;2022-08-18T05:53:02;9.60;;;8.60;;
29214;SDS011;16252;49.816;7.964;2022-08-18T05:55:39;9.48;;;8.10;;
29214;SDS011;16252;49.816;7.964;2022-08-18T05:58:47;10.15;;;7.90;;
29214;SDS011;16252;49.816;7.964;2022-08-18T06:01:23;9.38;;;8.18;;
29214;SDS011;16252;49.816;7.964;2022-08-18T06:04:00;8.55;;;7.65;;
29214;SDS011;16252;49.816;7.964;2022-08-18T06:06:30;11.20;;;8.68;;
29214;SDS011;16252;49.816;7.964;2022-08-18T06:11:46;9.65;;;8.57;;
29214;SDS011;16252;49.816;7.964;2022-08-18T06:14:11;9.40;;;8.32;;
29214;SDS011;16252;49.816;7.964;2022-08-18T06:19:35;8.63;;;7.75;;
29214;SDS011;16252;49.816;7.964;2022-08-18T06:22:16;10.40;;;8.05;;
29214;SDS011;16252;49.816;7.964;2022-08-18T06:39:25;8.98;;;7.90;;
29214;SDS011;16252;49.816;7.964;2022-08-18T06:42:11;8.50;;;7.63;;
29214;SDS011;16252;49.816;7.964;2022-08-18T06:44:42;8.18;;;7.28;;
29214;SDS011;16252;49.816;7.964;2022-08-18T06:47:16;7.63;;;6.93;;
29214;SDS011;16252;49.816;7.964;2022-08-18T06:52:50;8.00;;;6.82;;
29214;SDS011;16252;49.816;7.964;2022-08-18T06:55:18;6.40;;;5.78;;
29214;SDS011;16252;49.816;7.964;2022-08-18T06:58:01;8.40;;;7.10;;
29214;SDS011;16252;49.816;7.964;2022-08-18T07:03:17;12.25;;;6.63;;
29214;SDS011;16252;49.816;7.964;2022-08-18T07:11:11;11.23;;;7.80;;
29214;SDS011;16252;49.816;7.964;2022-08-18T07:13:45;9.85;;;7.32;;
29214;SDS011;16252;49.816;7.964;2022-08-18T07:16:14;8.00;;;6.78;;
29214;SDS011;16252;49.816;7.964;2022-08-18T07:18:52;8.10;;;7.15;;
29214;SDS011;16252;49.816;7.964;2022-08-18T07:21:24;8.90;;;7.28;;
29214;SDS011;16252;49.816;7.964;2022-08-18T07:24:05;8.43;;;7.10;;
29214;SDS011;16252;49.816;7.964;2022-08-18T07:27:19;7.45;;;6.75;;
29214;SDS011;16252;49.816;7.964;2022-08-18T07:29:32;7.25;;;6.55;;
29214;SDS011;16252;49.816;7.964;2022-08-18T07:32:01;7.55;;;6.63;;
29214;SDS011;16252;49.816;7.964;2022-08-18T07:34:37;8.20;;;7.07;;
29214;SDS011;16252;49.816;7.964;2022-08-18T07:37:13;7.60;;;6.78;;
29214;SDS011;16252;49.816;7.964;2022-08-18T07:39:46;8.63;;;7.07;;
29214;SDS011;16252;49.816;7.964;2022-08-18T07:42:21;7.70;;;6.32;;
29214;SDS011;16252;49.816;7.964;2022-08-18T07:50:17;7.43;;;6.72;;
29214;SDS011;16252;49.816;7.964;2022-08-18T07:52:45;6.75;;;6.10;;
29214;SDS011;16252;49.816;7.964;2022-08-18T07:55:21;7.60;;;6.82;;
29214;SDS011;16252;49.816;7.964;2022-08-18T07:58:01;7.85;;;6.38;;
29214;SDS011;16252;49.816;7.964;2022-08-18T08:00:36;8.07;;;5.97;;
29214;SDS011;16252;49.816;7.964;2022-08-18T08:03:34;7.43;;;6.55;;
29214;SDS011;16252;49.816;7.964;2022-08-18T08:06:23;14.32;;;7.07;;
29214;SDS011;16252;49.816;7.964;2022-08-18T08:11:42;7.43;;;6.72;;
29214;SDS011;16252;49.816;7.964;2022-08-18T08:17:12;9.07;;;6.97;;
29214;SDS011;16252;49.816;7.964;2022-08-18T08:25:59;7.43;;;6.45;;
29214;SDS011;16252;49.816;7.964;2022-08-18T08:29:00;7.35;;;6.40;;
29214;SDS011;16252;49.816;7.964;2022-08-18T08:34:24;9.88;;;6.65;;
29214;SDS011;16252;49.816;7.964;2022-08-18T08:37:06;6.22;;;5.63;;
29214;SDS011;16252;49.816;7.964;2022-08-18T08:42:38;7.75;;;6.22;;
29214;SDS011;16252;49.816;7.964;2022-08-18T08:45:07;7.63;;;6.57;;
29214;SDS011;16252;49.816;7.964;2022-08-18T08:50:28;8.95;;;6.97;;
29214;SDS011;16252;49.816;7.964;2022-08-18T08:53:01;7.65;;;6.85;;
29214;SDS011;16252;49.816;7.964;2022-08-18T08:55:33;7.72;;;6.93;;
29214;SDS011;16252;49.816;7.964;2022-08-18T09:00:32;8.15;;;6.50;;
29214;SDS011;16252;49.816;7.964;2022-08-18T09:03:01;8.30;;;6.80;;
29214;SDS011;16252;49.816;7.964;2022-08-18T09:05:45;8.23;;;6.78;;
29214;SDS011;16252;49.816;7.964;2022-08-18T09:10:51;9.32;;;7.55;;
29214;SDS011;16252;49.816;7.964;2022-08-18T09:24:05;11.75;;;8.02;;
29214;SDS011;16252;49.816;7.964;2022-08-18T09:34:59;10.50;;;8.18;;
29214;SDS011;16252;49.816;7.964;2022-08-18T09:37:26;8.65;;;7.65;;
29214;SDS011;16252;49.816;7.964;2022-08-18T09:40:05;11.07;;;8.57;;
29214;SDS011;16252;49.816;7.964;2022-08-18T09:48:21;9.68;;;8.05;;
29214;SDS011;16252;49.816;7.964;2022-08-18T09:50:54;10.60;;;7.90;;
29214;SDS011;16252;49.816;7.964;2022-08-18T09:56:11;9.20;;;8.18;;
29214;SDS011;16252;49.816;7.964;2022-08-18T09:58:48;12.75;;;9.20;;
29214;SDS011;16252;49.816;7.964;2022-08-18T10:01:20;8.77;;;7.88;;
29214;SDS011;16252;49.816;7.964;2022-08-18T10:06:39;8.80;;;7.68;;
29214;SDS011;16252;49.816;7.964;2022-08-18T10:21:10;8.15;;;7.13;;
29214;SDS011;16252;49.816;7.964;2022-08-18T10:23:43;8.77;;;7.93;;
29214;SDS011;16252;49.816;7.964;2022-08-18T10:28:54;9.60;;;8.40;;
29214;SDS011;16252;49.816;7.964;2022-08-18T10:32:15;8.55;;;7.65;;
29214;SDS011;16252;49.816;7.964;2022-08-18T10:40:18;7.78;;;6.97;;
29214;SDS011;16252;49.816;7.964;2022-08-18T10:42:50;9.13;;;8.23;;
29214;SDS011;16252;49.816;7.964;2022-08-18T10:50:41;9.15;;;8.25;;
29214;SDS011;16252;49.816;7.964;2022-08-18T10:56:08;8.20;;;7.40;;
29214;SDS011;16252;49.816;7.964;2022-08-18T10:58:44;7.60;;;6.90;;
29214;SDS011;16252;49.816;7.964;2022-08-18T11:06:26;7.00;;;6.30;;
29214;SDS011;16252;49.816;7.964;2022-08-18T11:08:56;7.40;;;6.72;;
29214;SDS011;16252;49.816;7.964;2022-08-18T11:11:25;8.23;;;7.07;;
29214;SDS011;16252;49.816;7.964;2022-08-18T11:14:03;7.28;;;6.40;;
29214;SDS011;16252;49.816;7.964;2022-08-18T11:16:47;7.30;;;6.60;;
29214;SDS011;16252;49.816;7.964;2022-08-18T11:19:26;7.75;;;7.05;;
29214;SDS011;16252;49.816;7.964;2022-08-18T11:21:52;7.20;;;6.57;;
29214;SDS011;16252;49.816;7.964;2022-08-18T11:24:19;7.75;;;6.95;;
29214;SDS011;16252;49.816;7.964;2022-08-18T11:26:54;7.43;;;6.82;;
29214;SDS011;16252;49.816;7.964;2022-08-18T11:34:45;9.80;;;6.63;;
29214;SDS011;16252;49.816;7.964;2022-08-18T11:37:25;7.25;;;6.55;;
29214;SDS011;16252;49.816;7.964;2022-08-18T11:39:56;7.80;;;7.00;;
29214;SDS011;16252;49.816;7.964;2022-08-18T11:42:34;8.13;;;7.32;;
29214;SDS011;16252;49.816;7.964;2022-08-18T11:45:12;9.30;;;6.63;;
29214;SDS011;16252;49.816;7.964;2022-08-18T11:48:08;7.40;;;6.70;;
29214;SDS011;16252;49.816;7.964;2022-08-18T11:50:58;7.97;;;7.25;;
29214;SDS011;16252;49.816;7.964;2022-08-18T11:58:44;7.88;;;5.85;;
29214;SDS011;16252;49.816;7.964;2022-08-18T12:03:57;6.18;;;5.68;;
29214;SDS011;16252;49.816;7.964;2022-08-18T12:09:18;6.43;;;5.80;;
29214;SDS011;16252;49.816;7.964;2022-08-18T12:12:06;7.40;;;6.65;;
29214;SDS011;16252;49.816;7.964;2022-08-18T12:14:59;6.45;;;5.90;;
29214;SDS011;16252;49.816;7.964;2022-08-18T12:17:45;9.35;;;6.00;;
29214;SDS011;16252;49.816;7.964;2022-08-18T12:20:12;6.68;;;6.07;;
29214;SDS011;16252;49.816;7.964;2022-08-18T12:22:40;7.18;;;6.47;;
29214;SDS011;16252;49.816;7.964;2022-08-18T12:25:08;7.75;;;7.00;;
29214;SDS011;16252;49.816;7.964;2022-08-18T12:27:36;7.68;;;5.95;;
29214;SDS011;16252;49.816;7.964;2022-08-18T12:30:03;6.88;;;6.18;;
29214;SDS011;16252;49.816;7.964;2022-08-18T12:32:30;7.20;;;6.50;;
29214;SDS011;16252;49.816;7.964;2022-08-18T12:34:58;6.18;;;5.65;;
29214;SDS011;16252;49.816;7.964;2022-08-18T12:37:25;10.30;;;7.28;;
29214;SDS011;16252;49.816;7.964;2022-08-18T12:39:51;9.30;;;7.47;;
29214;SDS011;16252;49.816;7.964;2022-08-18T12:42:18;9.80;;;7.32;;
29214;SDS011;16252;49.816;7.964;2022-08-18T12:44:44;8.32;;;7.07;;
29214;SDS011;16252;49.816;7.964;2022-08-18T12:47:15;5.95;;;5.43;;
29214;SDS011;16252;49.816;7.964;2022-08-18T12:49:43;12.38;;;7.35;;
29214;SDS011;16252;49.816;7.964;2022-08-18T12:52:08;7.55;;;6.72;;
29214;SDS011;16252;49.816;7.964;2022-08-18T12:54:34;6.35;;;5.75;;
29214;SDS011;16252;49.816;7.964;2022-08-18T12:57:01;6.00;;;5.50;;
29214;SDS011;16252;49.816;7.964;2022-08-18T12:59:29;6.00;;;5.15;;
29214;SDS011;16252;49.816;7.964;2022-08-18T13:01:54;5.10;;;4.60;;
29214;SDS011;16252;49.816;7.964;2022-08-18T13:04:20;6.25;;;5.65;;
29214;SDS011;16252;49.816;7.964;2022-08-18T13:06:46;5.95;;;5.18;;
29214;SDS011;16252;49.816;7.964;2022-08-18T13:09:14;5.65;;;5.07;;
29214;SDS011;16252;49.816;7.964;2022-08-18T13:11:39;5.40;;;4.90;;
29214;SDS011;16252;49.816;7.964;2022-08-18T13:14:05;5.30;;;4.80;;
29214;SDS011;16252;49.816;7.964;2022-08-18T13:16:31;5.75;;;4.90;;
29214;SDS011;16252;49.816;7.964;2022-08-18T13:18:59;5.85;;;4.53;;
29214;SDS011;16252;49.816;7.964;2022-08-18T13:21:25;5.78;;;4.85;;
29214;SDS011;16252;49.816;7.964;2022-08-18T13:23:51;6.10;;;5.50;;
29214;SDS011;16252;49.816;7.964;2022-08-18T13:26:20;6.63;;;6.03;;
29214;SDS011;16252;49.816;7.964;2022-08-18T13:28:52;7.68;;;6.18;;
29214;SDS011;16252;49.816;7.964;2022-08-18T13:31:17;6.93;;;6.13;;
29214;SDS011;16252;49.816;7.964;2022-08-18T13:33:43;6.40;;;5.80;;
29214;SDS011;16252;49.816;7.964;2022-08-18T13:36:08;6.07;;;5.57;;
29214;SDS011;16252;49.816;7.964;2022-08-18T13:38:33;6.57;;;5.97;;
29214;SDS011;16252;49.816;7.964;2022-08-18T13:40:59;7.35;;;6.60;;
29214;SDS011;16252;49.816;7.964;2022-08-18T13:45:59;6.82;;;6.13;;
29214;SDS011;16252;49.816;7.964;2022-08-18T13:48:25;6.75;;;6.15;;
29214;SDS011;16252;49.816;7.964;2022-08-18T13:50:54;7.20;;;6.50;;
29214;SDS011;16252;49.816;7.964;2022-08-18T13:53:22;7.82;;;6.97;;
29214;SDS011;16252;49.816;7.964;2022-08-18T13:55:49;7.43;;;6.45;;
29214;SDS011;16252;49.816;7.964;2022-08-18T13:58:14;7.07;;;6.38;;
29214;SDS011;16252;49.816;7.964;2022-08-18T14:00:40;7.40;;;6.55;;
29214;SDS011;16252;49.816;7.964;2022-08-18T14:03:06;7.75;;;6.18;;
29214;SDS011;16252;49.816;7.964;2022-08-18T14:05:32;9.23;;;6.80;;
29214;SDS011;16252;49.816;7.964;2022-08-18T14:07:58;8.02;;;6.60;;
29214;SDS011;16252;49.816;7.964;2022-08-18T14:10:24;7.05;;;6.35;;
29214;SDS011;16252;49.816;7.964;2022-08-18T14:12:51;7.32;;;6.63;;
29214;SDS011;16252;49.816;7.964;2022-08-18T14:15:19;5.90;;;5.40;;
29214;SDS011;16252;49.816;7.964;2022-08-18T14:17:44;6.25;;;5.68;;
29214;SDS011;16252;49.816;7.964;2022-08-18T14:20:10;7.93;;;5.88;;
29214;SDS011;16252;49.816;7.964;2022-08-18T14:22:56;6.28;;;5.72;;
29214;SDS011;16252;49.816;7.964;2022-08-18T14:25:41;6.50;;;5.90;;
29214;SDS011;16252;49.816;7.964;2022-08-18T14:28:26;9.80;;;6.82;;
29214;SDS011;16252;49.816;7.964;2022-08-18T14:30:52;8.07;;;6.55;;
29214;SDS011;16252;49.816;7.964;2022-08-18T14:33:19;6.88;;;6.25;;
29214;SDS011;16252;49.816;7.964;2022-08-18T14:35:46;7.80;;;7.03;;
29214;SDS011;16252;49.816;7.964;2022-08-18T14:38:12;8.85;;;7.95;;
29214;SDS011;16252;49.816;7.964;2022-08-18T14:40:39;11.73;;;8.02;;
29214;SDS011;16252;49.816;7.964;2022-08-18T14:43:06;10.05;;;8.85;;
29214;SDS011;16252;49.816;7.964;2022-08-18T14:45:31;9.80;;;8.80;;
29214;SDS011;16252;49.816;7.964;2022-08-18T14:47:57;10.52;;;9.50;;
29214;SDS011;16252;49.816;7.964;2022-08-18T14:50:23;12.70;;;9.07;;
29214;SDS011;16252;49.816;7.964;2022-08-18T14:52:49;11.75;;;9.85;;
29214;SDS011;16252;49.816;7.964;2022-08-18T14:55:14;10.38;;;9.30;;
29214;SDS011;16252;49.816;7.964;2022-08-18T14:57:40;10.95;;;9.68;;
29214;SDS011;16252;49.816;7.964;2022-08-18T15:00:07;11.15;;;10.02;;
29214;SDS011;16252;49.816;7.964;2022-08-18T15:02:37;12.82;;;10.30;;
29214;SDS011;16252;49.816;7.964;2022-08-18T15:05:04;11.00;;;9.90;;
29214;SDS011;16252;49.816;7.964;2022-08-18T15:07:30;12.10;;;10.25;;
29214;SDS011;16252;49.816;7.964;2022-08-18T15:09:56;12.93;;;10.25;;
29214;SDS011;16252;49.816;7.964;2022-08-18T15:12:22;12.07;;;10.77;;
29214;SDS011;16252;49.816;7.964;2022-08-18T15:14:48;12.15;;;10.60;;
29214;SDS011;16252;49.816;7.964;2022-08-18T15:17:14;13.10;;;11.50;;
29214;SDS011;16252;49.816;7.964;2022-08-18T15:19:40;12.85;;;11.45;;
29214;SDS011;16252;49.816;7.964;2022-08-18T15:22:07;13.57;;;12.00;;
29214;SDS011;16252;49.816;7.964;2022-08-18T15:24:51;12.68;;;11.38;;
29214;SDS011;16252;49.816;7.964;2022-08-18T15:27:36;14.57;;;12.52;;
29214;SDS011;16252;49.816;7.964;2022-08-18T15:30:07;14.63;;;12.82;;
29214;SDS011;16252;49.816;7.964;2022-08-18T15:32:36;14.00;;;12.45;;
29214;SDS011;16252;49.816;7.964;2022-08-18T15:35:02;14.73;;;12.52;;
29214;SDS011;16252;49.816;7.964;2022-08-18T15:37:30;15.10;;;12.02;;
29214;SDS011;16252;49.816;7.964;2022-08-18T15:39:59;12.63;;;11.27;;
29214;SDS011;16252;49.816;7.964;2022-08-18T15:42:41;12.70;;;11.40;;
29214;SDS011;16252;49.816;7.964;2022-08-18T15:45:08;13.32;;;11.45;;
29214;SDS011;16252;49.816;7.964;2022-08-18T15:47:33;14.90;;;11.23;;
29214;SDS011;16252;49.816;7.964;2022-08-18T15:49:59;12.68;;;10.95;;
29214;SDS011;16252;49.816;7.964;2022-08-18T15:52:25;13.38;;;11.13;;
29214;SDS011;16252;49.816;7.964;2022-08-18T15:54:50;11.43;;;10.25;;
29214;SDS011;16252;49.816;7.964;2022-08-18T15:57:16;12.60;;;10.55;;
29214;SDS011;16252;49.816;7.964;2022-08-18T15:59:41;13.70;;;11.82;;
29214;SDS011;16252;49.816;7.964;2022-08-18T16:02:08;14.00;;;12.00;;
29214;SDS011;16252;49.816;7.964;2022-08-18T16:04:34;14.18;;;12.00;;
29214;SDS011;16252;49.816;7.964;2022-08-18T16:07:03;14.13;;;12.13;;
29214;SDS011;16252;49.816;7.964;2022-08-18T16:09:29;13.75;;;11.73;;
29214;SDS011;16252;49.816;7.964;2022-08-18T16:11:54;14.35;;;11.32;;
29214;SDS011;16252;49.816;7.964;2022-08-18T16:14:20;16.73;;;10.05;;
29214;SDS011;16252;49.816;7.964;2022-08-18T16:16:46;11.95;;;10.50;;
29214;SDS011;16252;49.816;7.964;2022-08-18T16:19:11;12.10;;;10.10;;
29214;SDS011;16252;49.816;7.964;2022-08-18T16:21:37;11.55;;;10.07;;
29214;SDS011;16252;49.816;7.964;2022-08-18T16:24:03;13.18;;;9.80;;
29214;SDS011;16252;49.816;7.964;2022-08-18T16:26:30;13.20;;;10.90;;
29214;SDS011;16252;49.816;7.964;2022-08-18T16:28:55;12.82;;;10.55;;
29214;SDS011;16252;49.816;7.964;2022-08-18T16:31:21;13.43;;;11.00;;
29214;SDS011;16252;49.816;7.964;2022-08-18T16:33:53;12.88;;;10.93;;
29214;SDS011;16252;49.816;7.964;2022-08-18T16:36:21;11.95;;;9.93;;
29214;SDS011;16252;49.816;7.964;2022-08-18T16:38:51;13.63;;;10.82;;
29214;SDS011;16252;49.816;7.964;2022-08-18T16:41:17;14.25;;;10.73;;
29214;SDS011;16252;49.816;7.964;2022-08-18T16:43:43;12.15;;;10.55;;
29214;SDS011;16252;49.816;7.964;2022-08-18T16:46:19;11.43;;;9.23;;
29214;SDS011;16252;49.816;7.964;2022-08-18T16:48:48;11.77;;;10.00;;
29214;SDS011;16252;49.816;7.964;2022-08-18T16:51:15;12.63;;;10.98;;
29214;SDS011;16252;49.816;7.964;2022-08-18T16:53:41;13.15;;;10.60;;
29214;SDS011;16252;49.816;7.964;2022-08-18T16:56:11;12.13;;;10.13;;
29214;SDS011;16252;49.816;7.964;2022-08-18T16:58:40;11.88;;;9.88;;
29214;SDS011;16252;49.816;7.964;2022-08-18T17:01:24;12.35;;;9.90;;
29214;SDS011;16252;49.816;7.964;2022-08-18T17:04:08;12.50;;;10.43;;
29214;SDS011;16252;49.816;7.964;2022-08-18T17:06:36;11.77;;;10.52;;
29214;SDS011;16252;49.816;7.964;2022-08-18T17:09:03;11.18;;;9.82;;
29214;SDS011;16252;49.816;7.964;2022-08-18T17:11:29;11.60;;;10.23;;
29214;SDS011;16252;49.816;7.964;2022-08-18T17:13:55;12.82;;;9.93;;
29214;SDS011;16252;49.816;7.964;2022-08-18T17:16:23;12.43;;;10.75;;
29214;SDS011;16252;49.816;7.964;2022-08-18T17:18:50;11.65;;;9.75;;
29214;SDS011;16252;49.816;7.964;2022-08-18T17:21:17;12.95;;;10.70;;
29214;SDS011;16252;49.816;7.964;2022-08-18T17:23:44;13.35;;;10.35;;
29214;SDS011;16252;49.816;7.964;2022-08-18T17:26:12;12.27;;;10.07;;
29214;SDS011;16252;49.816;7.964;2022-08-18T17:28:51;11.65;;;10.25;;